Time;durP1;ratioP1;P1;durP2;ratioP2;P2;SDS_P1;SDS_P2;PMS_P1;PMS_P2;Temp;Humidity;BMP_temperature;BMP_pressure;BME280_temperature;BME280_humidity;BME280_pressure;Samples;Min_cycle;Max_cycle;Signal;HPM_P1;HPM_P2
2022/02/27 00:00:39;;;;;;;1.15;0.68;;;21.60;85.80;;;;;;5012957;28;20056;-76
2022/02/27 00:03:06;;;;;;;2.33;0.95;;;21.60;86.50;;;;;;5007609;28;20091;-76
2022/02/27 00:05:32;;;;;;;2.22;0.70;;;21.60;85.50;;;;;;5011367;28;20044;-76
2022/02/27 00:07:57;;;;;;;2.88;0.68;;;21.60;85.50;;;;;;5013475;28;20037;-76
2022/02/27 00:10:25;;;;;;;2.47;0.60;;;21.60;85.40;;;;;;5010090;28;20022;-76
2022/02/27 00:12:51;;;;;;;1.20;0.60;;;21.60;85.60;;;;;;5010977;28;20034;-76
2022/02/27 00:15:17;;;;;;;2.13;0.70;;;21.60;85.50;;;;;;5010320;28;20049;-76
2022/02/27 00:17:43;;;;;;;2.05;0.75;;;21.60;85.50;;;;;;5010930;28;20096;-76
2022/02/27 00:20:09;;;;;;;1.23;0.60;;;21.60;85.80;;;;;;5011234;28;20029;-75
2022/02/27 00:22:36;;;;;;;1.13;0.60;;;21.60;85.30;;;;;;5011034;28;20501;-77
2022/02/27 00:25:05;;;;;;;2.75;0.80;;;21.60;85.80;;;;;;5011517;28;20374;-76
2022/02/27 00:27:30;;;;;;;1.25;0.60;;;21.50;85.90;;;;;;5014119;28;20025;-76
2022/02/27 00:29:58;;;;;;;1.45;0.65;;;21.50;85.70;;;;;;5011556;28;20038;-76
2022/02/27 00:32:24;;;;;;;0.95;0.60;;;21.50;86.10;;;;;;5010682;28;20049;-75
2022/02/27 00:34:49;;;;;;;1.90;0.90;;;21.50;86.00;;;;;;5014112;28;20041;-76
2022/02/27 00:37:15;;;;;;;1.25;0.70;;;21.50;86.10;;;;;;5015657;28;20033;-76
2022/02/27 00:39:43;;;;;;;1.10;0.50;;;;;;;;;;5015567;28;20498;-76
2022/02/27 00:42:09;;;;;;;1.92;0.77;;;21.50;86.00;;;;;;5014230;28;20123;-76
2022/02/27 00:44:35;;;;;;;1.20;0.77;;;21.50;85.80;;;;;;5013770;28;20439;-75
2022/02/27 00:47:00;;;;;;;1.33;0.63;;;21.50;86.20;;;;;;4999237;28;20037;-76
2022/02/27 00:49:26;;;;;;;1.77;0.68;;;21.50;86.10;;;;;;5014222;28;20045;-76
2022/02/27 00:51:52;;;;;;;0.47;0.38;;;;;;;;;;5014092;28;20394;-75
2022/02/27 00:54:20;;;;;;;1.90;0.70;;;21.40;86.20;;;;;;5015557;28;20065;-76
2022/02/27 00:56:47;;;;;;;2.55;0.63;;;21.40;86.40;;;;;;5031536;28;20045;-76
2022/02/27 00:59:15;;;;;;;1.17;0.70;;;21.40;86.40;;;;;;5016162;28;20076;-75
2022/02/27 01:01:41;;;;;;;1.15;0.70;;;21.40;86.80;;;;;;5015356;28;20045;-76
2022/02/27 01:04:09;;;;;;;2.97;0.60;;;21.30;86.20;;;;;;5013715;28;20033;-76
2022/02/27 01:06:35;;;;;;;2.63;0.70;;;;;;;;;;5014622;28;20034;-75
2022/02/27 01:09:01;;;;;;;1.33;0.88;;;;;;;;;;5017255;28;20025;-76
2022/02/27 01:11:28;;;;;;;1.48;0.60;;;21.40;86.40;;;;;;5027114;28;20936;-75
2022/02/27 01:13:56;;;;;;;3.63;0.90;;;21.30;86.70;;;;;;5015164;28;20034;-76
2022/02/27 01:16:23;;;;;;;0.68;0.55;;;;;;;;;;5008123;28;20129;-76
2022/02/27 01:18:50;;;;;;;1.08;0.70;;;;;;;;;;5015574;28;20034;-76
2022/02/27 01:21:16;;;;;;;1.17;0.70;;;;;;;;;;5015881;28;20088;-76
2022/02/27 01:23:46;;;;;;;0.80;0.70;;;;;;;;;;5015229;28;20872;-76
2022/02/27 01:26:12;;;;;;;1.60;0.77;;;;;;;;;;5016313;28;20021;-76
2022/02/27 01:28:38;;;;;;;2.30;0.80;;;;;;;;;;5014681;28;20060;-76
2022/02/27 01:31:04;;;;;;;2.92;0.60;;;;;;;;;;5015613;28;20446;-76
2022/02/27 01:33:30;;;;;;;3.47;0.70;;;21.30;86.40;;;;;;5015834;28;20026;-75
2022/02/27 01:35:56;;;;;;;1.33;0.50;;;21.30;86.30;;;;;;5008275;28;20041;-76
2022/02/27 01:38:21;;;;;;;1.70;0.82;;;21.20;86.40;;;;;;5014201;28;20045;-76
2022/02/27 01:40:47;;;;;;;0.93;0.50;;;21.30;87.30;;;;;;5016146;28;20029;-76
2022/02/27 01:43:12;;;;;;;2.20;0.60;;;21.20;86.40;;;;;;5015266;28;20034;-75
2022/02/27 01:45:38;;;;;;;0.55;0.40;;;21.30;86.50;;;;;;5025183;28;20463;-76
2022/02/27 01:48:04;;;;;;;0.60;0.40;;;;;;;;;;5013149;28;20034;-75
2022/02/27 01:50:30;;;;;;;1.50;0.70;;;21.20;86.90;;;;;;5029307;28;20425;-76
2022/02/27 01:52:55;;;;;;;1.75;0.90;;;21.20;86.70;;;;;;5016360;28;20029;-75
2022/02/27 01:55:23;;;;;;;1.13;0.85;;;21.20;86.70;;;;;;5014347;28;20029;-75
2022/02/27 01:57:50;;;;;;;1.58;0.80;;;21.20;86.60;;;;;;5014402;28;20034;-74
2022/02/27 02:00:15;;;;;;;1.17;0.50;;;21.20;86.70;;;;;;5014539;28;20041;-76
2022/02/27 02:02:46;;;;;;;2.63;1.08;;;21.20;86.70;;;;;;5013056;28;21548;-75
2022/02/27 02:05:12;;;;;;;1.48;0.55;;;21.20;86.50;;;;;;5012199;28;20034;-76
2022/02/27 02:07:44;;;;;;;1.00;0.40;;;21.20;86.50;;;;;;5009197;28;20079;-75
2022/02/27 02:10:10;;;;;;;1.50;0.63;;;21.20;86.70;;;;;;5008824;28;20056;-75
2022/02/27 02:12:38;;;;;;;1.10;0.57;;;21.20;86.50;;;;;;5013106;28;21668;-76
2022/02/27 02:15:04;;;;;;;1.90;0.82;;;21.10;86.40;;;;;;5013025;28;20034;-76
2022/02/27 02:17:30;;;;;;;2.92;0.60;;;21.10;86.60;;;;;;5024433;28;20375;-76
2022/02/27 02:19:56;;;;;;;1.08;0.70;;;21.10;86.60;;;;;;5013658;28;20045;-76
2022/02/27 02:22:22;;;;;;;1.67;1.00;;;21.10;86.50;;;;;;5012556;28;20048;-76
2022/02/27 02:24:48;;;;;;;0.40;0.40;;;21.10;86.70;;;;;;5010892;28;20030;-76
2022/02/27 02:27:14;;;;;;;1.83;0.60;;;21.10;86.70;;;;;;5014033;28;20087;-76
2022/02/27 02:29:40;;;;;;;1.75;0.70;;;21.10;86.70;;;;;;5024897;28;20021;-76
2022/02/27 02:32:06;;;;;;;1.42;0.65;;;21.10;86.50;;;;;;5025288;28;20095;-76
2022/02/27 02:34:31;;;;;;;2.10;0.80;;;21.10;86.60;;;;;;5014109;28;20044;-75
2022/02/27 02:36:58;;;;;;;1.98;0.52;;;21.10;86.50;;;;;;5013750;28;20033;-76
2022/02/27 02:39:27;;;;;;;1.17;0.50;;;21.10;86.50;;;;;;5014519;28;20182;-75
2022/02/27 02:41:54;;;;;;;1.27;0.52;;;;;;;;;;5013980;28;20059;-76
2022/02/27 02:44:20;;;;;;;1.13;0.60;;;;;;;;;;5015207;28;20033;-76
2022/02/27 02:46:46;;;;;;;1.23;0.50;;;;;;;;;;5024828;28;20112;-76
2022/02/27 02:49:13;;;;;;;0.85;0.60;;;;;;;;;;5027964;28;20973;-76
2022/02/27 02:51:39;;;;;;;1.38;0.73;;;;;;;;;;5011186;28;20030;-76
2022/02/27 02:54:07;;;;;;;1.65;0.65;;;;;;;;;;5014240;28;20029;-76
2022/02/27 02:56:33;;;;;;;1.65;0.43;;;;;;;;;;5012673;28;20053;-76
2022/02/27 02:58:59;;;;;;;1.20;0.70;;;;;;;;;;5007040;28;20049;-76
2022/02/27 03:01:25;;;;;;;1.70;1.05;;;;;;;;;;5014229;28;20382;-75
2022/02/27 03:03:51;;;;;;;2.38;0.80;;;;;;;;;;5012447;28;20045;-76
2022/02/27 03:06:18;;;;;;;1.08;0.50;;;;;;;;;;5023547;28;20597;-76
2022/02/27 03:08:45;;;;;;;1.27;0.75;;;;;;;;;;5006638;28;20972;-76
2022/02/27 03:11:11;;;;;;;0.88;0.50;;;;;;;;;;5024570;28;20040;-76
2022/02/27 03:13:37;;;;;;;0.85;0.73;;;;;;;;;;5024581;28;20022;-75
2022/02/27 03:16:04;;;;;;;1.85;0.98;;;;;;;;;;5013516;28;20129;-75
2022/02/27 03:18:30;;;;;;;1.42;0.70;;;;;;;;;;5010345;28;21639;-76
2022/02/27 03:20:59;;;;;;;1.85;0.65;;;;;;;;;;5012632;28;20113;-76
2022/02/27 03:23:25;;;;;;;2.67;0.77;;;;;;;;;;5013412;28;20045;-76
2022/02/27 03:25:54;;;;;;;1.38;0.70;;;;;;;;;;5024521;28;20087;-76
2022/02/27 03:28:22;;;;;;;0.90;0.77;;;;;;;;;;5012727;28;20375;-76
2022/02/27 03:30:51;;;;;;;1.00;0.35;;;;;;;;;;5011306;28;20049;-76
2022/02/27 03:33:20;;;;;;;1.25;0.75;;;;;;;;;;5024006;28;20068;-76
2022/02/27 03:35:46;;;;;;;1.25;0.70;;;;;;;;;;5024141;28;20029;-76
2022/02/27 03:38:12;;;;;;;3.38;0.82;;;;;;;;;;5013087;28;20387;-76
2022/02/27 03:40:38;;;;;;;1.75;0.60;;;;;;;;;;5022416;28;20121;-75
2022/02/27 03:43:04;;;;;;;0.77;0.50;;;;;;;;;;5013426;28;20052;-76
2022/02/27 03:45:30;;;;;;;4.22;0.50;;;;;;;;;;5014279;28;20040;-76
2022/02/27 03:47:56;;;;;;;0.70;0.60;;;;;;;;;;5024551;28;20092;-76
2022/02/27 03:50:23;;;;;;;1.35;0.82;;;;;;;;;;5014492;28;20034;-76
2022/02/27 03:52:49;;;;;;;1.35;0.82;;;;;;;;;;5013871;28;20036;-76
2022/02/27 03:55:15;;;;;;;2.67;0.77;;;;;;;;;;5012905;28;20040;-76
2022/02/27 03:57:42;;;;;;;1.08;0.57;;;;;;;;;;5024617;28;20034;-76
2022/02/27 04:00:12;;;;;;;1.30;0.75;;;;;;;;;;5023750;28;20061;-76
2022/02/27 04:02:38;;;;;;;2.55;0.88;;;;;;;;;;5024060;28;20470;-76
2022/02/27 04:05:04;;;;;;;1.15;0.68;;;;;;;;;;5025942;28;20045;-75
2022/02/27 04:07:30;;;;;;;1.13;0.70;;;21.10;86.40;;;;;;5025329;28;20862;-75
2022/02/27 04:09:55;;;;;;;1.45;0.68;;;20.80;87.30;;;;;;5017629;28;20136;-75
2022/02/27 04:12:21;;;;;;;1.00;0.47;;;20.80;86.90;;;;;;5018119;28;20032;-76
2022/02/27 04:14:47;;;;;;;0.93;0.60;;;20.80;87.60;;;;;;5018444;28;20034;-76
2022/02/27 04:17:13;;;;;;;2.08;0.52;;;20.80;87.10;;;;;;5019234;28;20061;-76
2022/02/27 04:19:39;;;;;;;1.17;0.38;;;;;;;;;;5014236;28;20041;-76
2022/02/27 04:22:05;;;;;;;3.90;0.50;;;;;;;;;;5018753;28;20061;-76
2022/02/27 04:24:30;;;;;;;1.13;0.60;;;20.70;86.70;;;;;;5019152;28;20060;-75
2022/02/27 04:26:58;;;;;;;2.13;0.57;;;20.70;87.10;;;;;;5016507;28;20034;-76
2022/02/27 04:29:24;;;;;;;1.23;0.47;;;20.70;86.60;;;;;;5018570;28;20037;-76
2022/02/27 04:31:52;;;;;;;0.98;0.50;;;20.60;87.10;;;;;;5020340;28;20481;-76
2022/02/27 04:34:18;;;;;;;1.67;0.63;;;20.70;87.20;;;;;;5017468;28;20544;-76
2022/02/27 04:36:43;;;;;;;1.08;0.60;;;20.70;87.20;;;;;;5019052;28;20044;-76
2022/02/27 04:39:09;;;;;;;1.92;0.93;;;20.60;87.20;;;;;;5015827;28;20034;-76
2022/02/27 04:41:37;;;;;;;0.85;0.50;;;20.60;87.20;;;;;;5017790;28;20038;-76
2022/02/27 04:44:03;;;;;;;1.02;0.68;;;20.60;87.20;;;;;;5017825;28;20065;-76
2022/02/27 04:46:28;;;;;;;0.65;0.50;;;20.60;87.30;;;;;;5019559;28;20054;-76
2022/02/27 04:48:54;;;;;;;3.17;0.75;;;20.60;87.30;;;;;;5018569;28;20034;-76
2022/02/27 04:51:19;;;;;;;1.17;0.50;;;20.60;87.40;;;;;;5019478;28;20021;-76
2022/02/27 04:53:47;;;;;;;2.03;0.80;;;20.60;87.30;;;;;;5016925;28;20041;-76
2022/02/27 04:56:13;;;;;;;0.77;0.40;;;20.60;87.40;;;;;;5019385;28;20413;-76
2022/02/27 04:58:38;;;;;;;0.75;0.40;;;20.60;87.30;;;;;;5014607;28;20037;-76
2022/02/27 05:01:04;;;;;;;1.42;0.60;;;20.60;87.10;;;;;;5018908;28;20034;-76
2022/02/27 05:03:29;;;;;;;1.98;0.77;;;20.60;87.10;;;;;;5016395;28;20105;-76
2022/02/27 05:05:55;;;;;;;1.65;0.68;;;20.60;87.20;;;;;;5016440;28;20351;-76
2022/02/27 05:08:23;;;;;;;1.75;0.77;;;20.60;87.10;;;;;;5017928;28;20042;-76
2022/02/27 05:10:51;;;;;;;0.75;0.50;;;20.60;87.30;;;;;;5019456;28;20075;-76
2022/02/27 05:13:19;;;;;;;0.30;0.30;;;20.60;87.40;;;;;;5015469;28;20026;-77
2022/02/27 05:15:47;;;;;;;0.85;0.50;;;20.60;87.30;;;;;;5017771;28;20465;-76
2022/02/27 05:18:12;;;;;;;1.05;0.50;;;20.60;87.20;;;;;;5018778;28;20094;-76
2022/02/27 05:20:38;;;;;;;0.45;0.40;;;20.60;87.20;;;;;;5017462;28;20030;-76
2022/02/27 05:23:06;;;;;;;1.02;0.68;;;20.60;87.20;;;;;;5014340;28;20477;-76
2022/02/27 05:25:34;;;;;;;2.45;0.75;;;20.60;87.30;;;;;;5028274;28;20100;-76
2022/02/27 05:28:00;;;;;;;1.40;0.40;;;20.60;87.30;;;;;;5016416;28;20029;-76
2022/02/27 05:30:25;;;;;;;1.20;0.65;;;20.70;87.40;;;;;;5016012;28;20022;-76
2022/02/27 05:32:51;;;;;;;0.98;0.50;;;20.60;87.30;;;;;;5014016;28;20022;-76
2022/02/27 05:35:18;;;;;;;1.10;0.60;;;20.60;87.40;;;;;;5018524;28;20088;-77
2022/02/27 05:37:45;;;;;;;0.85;0.50;;;20.60;87.30;;;;;;5015512;28;20133;-76
2022/02/27 05:40:11;;;;;;;1.08;0.70;;;20.70;87.40;;;;;;5014584;28;20124;-76
2022/02/27 05:42:37;;;;;;;1.17;0.73;;;20.70;87.40;;;;;;5016459;28;20444;-77
2022/02/27 05:45:04;;;;;;;0.95;0.60;;;20.70;87.40;;;;;;5014624;28;20052;-76
2022/02/27 05:47:30;;;;;;;0.80;0.40;;;20.60;87.30;;;;;;5009602;28;20037;-75
2022/02/27 05:49:56;;;;;;;1.15;0.57;;;20.70;87.40;;;;;;5027332;28;20033;-76
2022/02/27 05:52:22;;;;;;;1.38;0.63;;;20.70;87.40;;;;;;5013688;28;20040;-75
2022/02/27 05:54:47;;;;;;;2.17;1.20;;;20.70;87.50;;;;;;5014559;28;20100;-76
2022/02/27 05:57:13;;;;;;;1.08;0.70;;;20.70;87.50;;;;;;5013743;28;20065;-76
2022/02/27 05:59:39;;;;;;;0.88;0.50;;;20.60;87.50;;;;;;5013159;28;20132;-76
2022/02/27 06:02:05;;;;;;;1.15;0.52;;;20.70;87.50;;;;;;5016857;28;20128;-76
2022/02/27 06:04:30;;;;;;;0.77;0.60;;;20.70;87.40;;;;;;5012733;28;20026;-76
2022/02/27 06:06:56;;;;;;;2.33;0.25;;;20.70;87.50;;;;;;5014437;28;21716;-76
2022/02/27 06:09:22;;;;;;;1.30;0.52;;;20.70;87.50;;;;;;5013083;28;20482;-76
2022/02/27 06:11:48;;;;;;;0.75;0.40;;;20.70;87.40;;;;;;5013902;28;20037;-76
2022/02/27 06:14:13;;;;;;;1.70;0.60;;;20.70;87.40;;;;;;5009400;28;20362;-76
2022/02/27 06:16:41;;;;;;;1.30;0.50;;;20.70;87.30;;;;;;5015415;28;20038;-76
2022/02/27 06:19:09;;;;;;;1.10;0.70;;;20.70;87.30;;;;;;5015741;28;20095;-76
2022/02/27 06:21:37;;;;;;;0.80;0.47;;;20.70;87.30;;;;;;5014127;28;20030;-76
2022/02/27 06:24:03;;;;;;;1.15;0.57;;;20.70;87.30;;;;;;5015017;28;20104;-76
2022/02/27 06:26:34;;;;;;;0.65;0.50;;;20.70;87.30;;;;;;5012523;28;20172;-76
2022/02/27 06:29:03;;;;;;;1.50;0.68;;;20.70;87.20;;;;;;5015709;28;20084;-76
2022/02/27 06:31:29;;;;;;;0.88;0.40;;;20.70;87.20;;;;;;5012933;28;20142;-76
2022/02/27 06:33:55;;;;;;;1.55;0.40;;;20.80;87.30;;;;;;5026845;28;20034;-76
2022/02/27 06:36:20;;;;;;;2.72;0.68;;;20.70;87.30;;;;;;5013008;28;20026;-76
2022/02/27 06:38:46;;;;;;;0.98;0.35;;;20.70;87.30;;;;;;5012404;28;20069;-76
2022/02/27 06:41:14;;;;;;;0.95;0.65;;;20.80;87.30;;;;;;5013507;28;20156;-76
2022/02/27 06:43:41;;;;;;;1.90;0.60;;;20.80;87.30;;;;;;5011691;28;20113;-76
2022/02/27 06:46:06;;;;;;;0.98;0.60;;;20.80;87.30;;;;;;5010954;28;20025;-76
2022/02/27 06:48:32;;;;;;;0.93;0.40;;;20.80;87.30;;;;;;5012169;28;20029;-76
2022/02/27 06:51:00;;;;;;;0.93;0.63;;;20.80;87.30;;;;;;5013310;28;20030;-76
2022/02/27 06:53:27;;;;;;;2.45;0.90;;;20.80;87.30;;;;;;5013886;28;20037;-76
2022/02/27 06:55:53;;;;;;;1.83;0.70;;;20.80;87.20;;;;;;5009396;28;20044;-76
2022/02/27 06:58:19;;;;;;;1.02;0.60;;;20.80;87.20;;;;;;5014026;28;20026;-77
2022/02/27 07:00:47;;;;;;;0.90;0.47;;;20.80;87.20;;;;;;5013763;28;20025;-77
2022/02/27 07:03:13;;;;;;;0.50;0.30;;;20.80;87.20;;;;;;5013886;28;20080;-76
2022/02/27 07:05:41;;;;;;;0.55;0.30;;;20.90;87.20;;;;;;5011029;28;20038;-76
2022/02/27 07:08:09;;;;;;;1.42;0.65;;;20.90;87.20;;;;;;5013178;28;20117;-76
2022/02/27 07:10:34;;;;;;;0.80;0.45;;;20.90;87.10;;;;;;5025506;28;20056;-76
2022/02/27 07:13:00;;;;;;;0.45;0.35;;;20.90;87.10;;;;;;5012397;28;20018;-75
2022/02/27 07:15:25;;;;;;;1.48;0.60;;;20.90;87.10;;;;;;5012777;28;20022;-76
2022/02/27 07:17:56;;;;;;;0.95;0.52;;;20.90;87.00;;;;;;5024046;28;20074;-76
2022/02/27 07:20:22;;;;;;;1.02;0.50;;;21.00;87.00;;;;;;5014452;28;20053;-75
2022/02/27 07:22:47;;;;;;;1.10;0.52;;;21.00;87.00;;;;;;5012663;28;20400;-76
2022/02/27 07:25:13;;;;;;;0.80;0.40;;;21.00;86.90;;;;;;5012862;28;20490;-76
2022/02/27 07:27:38;;;;;;;0.90;0.50;;;21.00;86.90;;;;;;5013366;28;20033;-76
2022/02/27 07:30:05;;;;;;;0.68;0.38;;;21.00;86.80;;;;;;5013013;28;20099;-74
2022/02/27 07:32:31;;;;;;;0.95;0.45;;;21.00;86.80;;;;;;5014294;28;20026;-76
2022/02/27 07:34:58;;;;;;;0.70;0.50;;;21.10;86.80;;;;;;5014662;28;20029;-76
2022/02/27 07:37:23;;;;;;;0.63;0.47;;;21.10;86.80;;;;;;5012134;28;20036;-76
2022/02/27 07:39:49;;;;;;;0.98;0.60;;;21.10;86.80;;;;;;5012032;28;20041;-76
2022/02/27 07:42:15;;;;;;;1.00;0.50;;;21.10;86.80;;;;;;5012828;28;20040;-76
2022/02/27 07:44:40;;;;;;;0.93;0.40;;;21.10;86.70;;;;;;5011758;28;20595;-76
2022/02/27 07:47:08;;;;;;;0.73;0.50;;;21.10;86.60;;;;;;5014230;28;20098;-76
2022/02/27 07:49:34;;;;;;;1.75;0.40;;;21.10;86.50;;;;;;5011480;28;20065;-75
2022/02/27 07:51:59;;;;;;;1.23;0.40;;;21.20;86.50;;;;;;5011501;28;20118;-75
2022/02/27 07:54:27;;;;;;;1.27;0.57;;;21.20;86.40;;;;;;5012353;28;20112;-75
2022/02/27 07:56:53;;;;;;;0.98;0.50;;;21.20;86.40;;;;;;5004820;28;20044;-77
2022/02/27 07:59:20;;;;;;;1.10;0.57;;;21.20;86.30;;;;;;5012218;28;20049;-76
2022/02/27 08:01:46;;;;;;;0.35;0.20;;;21.20;86.20;;;;;;5010957;28;20034;-76
2022/02/27 08:04:11;;;;;;;1.95;0.50;;;21.20;86.20;;;;;;5011458;28;20026;-76
2022/02/27 08:06:37;;;;;;;0.93;0.40;;;21.20;86.20;;;;;;5012311;28;20384;-76
2022/02/27 08:09:06;;;;;;;0.93;0.40;;;21.20;86.20;;;;;;5012197;28;20112;-76
2022/02/27 08:11:33;;;;;;;1.40;0.52;;;21.30;86.20;;;;;;5010129;28;20061;-76
2022/02/27 08:13:58;;;;;;;0.77;0.45;;;21.30;86.10;;;;;;5010689;28;20117;-76
2022/02/27 08:16:24;;;;;;;1.40;0.60;;;21.30;86.10;;;;;;5012834;28;20042;-75
2022/02/27 08:18:51;;;;;;;0.90;0.63;;;21.30;86.00;;;;;;5006541;28;20096;-76
2022/02/27 08:21:16;;;;;;;2.72;0.30;;;21.30;86.00;;;;;;5011728;28;20037;-76
2022/02/27 08:23:42;;;;;;;0.50;0.40;;;21.30;86.00;;;;;;5010747;28;20034;-77
2022/02/27 08:26:08;;;;;;;0.40;0.38;;;21.30;81.10;;;;;;5011105;28;20517;-76
2022/02/27 08:28:33;;;;;;;3.30;0.40;;;21.30;79.50;;;;;;5023007;28;20026;-76
2022/02/27 08:31:00;;;;;;;2.47;0.60;;;21.30;81.90;;;;;;5012814;28;20838;-78
2022/02/27 08:33:26;;;;;;;1.20;0.50;;;21.40;82.20;;;;;;5024817;28;20044;-76
2022/02/27 08:35:52;;;;;;;0.90;0.50;;;21.30;82.40;;;;;;5010769;28;20033;-77
2022/02/27 08:38:20;;;;;;;0.77;0.52;;;21.40;82.80;;;;;;5012165;28;20037;-75
2022/02/27 08:40:46;;;;;;;0.80;0.50;;;21.40;83.10;;;;;;5012533;28;20025;-77
2022/02/27 08:43:12;;;;;;;0.82;0.52;;;21.40;83.40;;;;;;5013090;28;20765;-76
2022/02/27 08:45:37;;;;;;;2.50;0.55;;;21.40;83.70;;;;;;5013813;28;20091;-76
2022/02/27 08:48:04;;;;;;;1.90;0.50;;;;;;;;;;5013187;28;20057;-77
2022/02/27 08:50:29;;;;;;;0.85;0.50;;;21.40;83.40;;;;;;5014747;28;20029;-78
2022/02/27 08:52:55;;;;;;;3.13;0.52;;;21.40;84.10;;;;;;5016249;28;20022;-77
2022/02/27 08:55:22;;;;;;;1.30;0.52;;;21.40;84.10;;;;;;5013992;28;20064;-77
2022/02/27 08:57:48;;;;;;;0.88;0.60;;;21.50;84.20;;;;;;5014950;28;20048;-77
2022/02/27 09:00:18;;;;;;;1.33;0.52;;;21.50;84.90;;;;;;5017708;28;20872;-78
2022/02/27 09:02:44;;;;;;;1.73;0.60;;;21.50;84.30;;;;;;5017889;28;20029;-76
2022/02/27 09:05:10;;;;;;;0.80;0.40;;;21.50;84.30;;;;;;5030735;28;20358;-77
2022/02/27 09:07:36;;;;;;;0.65;0.50;;;21.50;84.30;;;;;;5028357;28;20022;-77
2022/02/27 09:10:03;;;;;;;3.30;0.40;;;21.50;84.50;;;;;;5018108;28;20517;-77
2022/02/27 09:12:28;;;;;;;1.83;0.70;;;21.50;84.40;;;;;;5031386;28;20029;-77
2022/02/27 09:14:54;;;;;;;1.10;0.30;;;21.50;84.40;;;;;;5023889;28;20041;-78
2022/02/27 09:17:20;;;;;;;1.27;0.50;;;21.50;84.40;;;;;;5030744;28;20037;-77
2022/02/27 09:19:46;;;;;;;1.25;0.40;;;21.60;84.00;;;;;;5019027;28;20061;-78
2022/02/27 09:22:15;;;;;;;1.05;0.50;;;21.60;83.90;;;;;;5017660;28;20025;-76
2022/02/27 09:24:41;;;;;;;7.53;0.60;;;21.60;83.90;;;;;;5027855;28;20080;-76
2022/02/27 09:27:07;;;;;;;1.38;0.45;;;21.60;84.00;;;;;;5014818;28;20030;-76
2022/02/27 09:29:32;;;;;;;1.40;0.60;;;21.60;84.00;;;;;;5017963;28;20034;-76
2022/02/27 09:31:58;;;;;;;1.55;0.77;;;21.60;84.00;;;;;;5014851;28;20030;-77
2022/02/27 09:34:24;;;;;;;3.88;0.70;;;21.60;84.00;;;;;;5015414;28;20730;-76
2022/02/27 09:36:50;;;;;;;4.75;1.20;;;21.60;84.10;;;;;;5030139;28;20037;-77
2022/02/27 09:39:16;;;;;;;7.80;0.68;;;21.60;84.10;;;;;;5018945;28;20022;-76
2022/02/27 09:41:43;;;;;;;2.90;0.70;;;21.70;84.30;;;;;;5031342;28;20022;-76
2022/02/27 09:44:14;;;;;;;6.18;1.02;;;21.70;84.30;;;;;;5029374;28;20029;-77
2022/02/27 09:46:48;;;;;;;1.70;0.63;;;;;;;;;;5011180;28;20095;-75
2022/02/27 09:49:14;;;;;;;2.05;0.85;;;21.70;83.70;;;;;;5032437;28;20087;-75
2022/02/27 09:51:39;;;;;;;1.50;0.70;;;21.70;84.40;;;;;;5028047;28;20113;-77
2022/02/27 09:54:05;;;;;;;2.75;1.08;;;21.70;84.40;;;;;;5013665;28;20498;-75
2022/02/27 09:56:43;;;;;;;4.05;0.63;;;21.80;84.60;;;;;;5013046;28;20038;-75
2022/02/27 09:59:09;;;;;;;5.28;1.05;;;21.80;84.70;;;;;;5014287;28;20034;-76
2022/02/27 10:01:39;;;;;;;2.25;0.70;;;21.80;84.60;;;;;;5008718;28;20033;-75
2022/02/27 10:04:25;;;;;;;5.50;1.00;;;21.80;84.60;;;;;;5027627;28;20426;-76
2022/02/27 10:06:50;;;;;;;1.55;0.82;;;21.80;84.60;;;;;;5015426;28;20037;-77
2022/02/27 10:09:24;;;;;;;5.63;1.10;;;21.80;84.60;;;;;;5026662;28;20386;-75
2022/02/27 10:11:51;;;;;;;3.45;1.00;;;21.90;80.20;;;;;;5016713;28;20048;-76
2022/02/27 10:14:28;;;;;;;4.70;1.48;;;21.90;82.30;;;;;;5015280;28;20033;-77
2022/02/27 10:17:04;;;;;;;2.53;0.82;;;21.90;82.40;;;;;;5031071;28;20033;-75
2022/02/27 10:19:39;;;;;;;6.47;1.27;;;21.90;82.60;;;;;;5015766;28;20052;-78
2022/02/27 10:22:09;;;;;;;5.03;1.05;;;21.90;82.70;;;;;;5013649;28;20084;-76
2022/02/27 10:24:38;;;;;;;2.83;1.20;;;21.90;82.80;;;;;;5014299;28;20029;-76
2022/02/27 10:27:11;;;;;;;3.22;0.73;;;21.90;83.00;;;;;;5013088;28;20055;-75
2022/02/27 10:29:37;;;;;;;2.75;0.95;;;21.90;83.10;;;;;;5015043;28;20033;-76
2022/02/27 10:32:04;;;;;;;6.78;1.63;;;21.90;83.10;;;;;;5014204;28;20026;-76
2022/02/27 10:34:31;;;;;;;3.92;1.10;;;22.00;83.30;;;;;;5014217;28;20037;-77
2022/02/27 10:37:32;;;;;;;5.50;1.15;;;22.00;83.40;;;;;;5012537;28;20454;-75
2022/02/27 10:39:59;;;;;;;5.03;1.20;;;22.00;83.40;;;;;;4979182;28;20048;-76
2022/02/27 10:42:27;;;;;;;2.55;1.10;;;22.00;83.40;;;;;;5013564;28;20036;-75
2022/02/27 10:45:04;;;;;;;3.60;1.10;;;22.00;83.40;;;;;;5011017;28;20037;-76
2022/02/27 10:47:31;;;;;;;2.58;0.60;;;22.00;83.40;;;;;;5030055;28;20069;-76
2022/02/27 10:49:59;;;;;;;3.50;1.10;;;22.00;83.00;;;;;;5013797;28;20108;-76
2022/02/27 10:52:30;;;;;;;6.53;0.82;;;22.00;83.10;;;;;;5014586;28;20045;-75
2022/02/27 10:55:11;;;;;;;3.78;0.85;;;22.00;81.80;;;;;;5015831;28;20108;-77
2022/02/27 10:57:45;;;;;;;4.57;0.98;;;22.00;81.40;;;;;;5028291;28;20025;-75
2022/02/27 11:00:22;;;;;;;4.97;0.93;;;22.00;80.80;;;;;;5011127;28;20030;-76
2022/02/27 11:02:57;;;;;;;4.05;1.02;;;22.00;80.40;;;;;;5016450;28;21660;-74
2022/02/27 11:05:29;;;;;;;2.45;0.60;;;22.00;79.90;;;;;;5011294;28;20081;-76
2022/02/27 11:07:59;;;;;;;2.03;0.80;;;22.00;79.40;;;;;;5025149;28;20021;-75
2022/02/27 11:10:30;;;;;;;2.53;0.75;;;22.00;79.00;;;;;;5012863;28;20062;-75
2022/02/27 11:12:59;;;;;;;0.70;0.60;;;22.00;78.60;;;;;;5012669;28;20026;-75
2022/02/27 11:15:25;;;;;;;2.35;0.82;;;22.00;78.30;;;;;;5023297;28;20087;-75
2022/02/27 11:17:51;;;;;;;2.65;0.80;;;22.00;78.00;;;;;;5011077;28;20033;-75
2022/02/27 11:20:21;;;;;;;6.55;1.15;;;22.00;77.50;;;;;;5012534;28;20071;-75
2022/02/27 11:22:48;;;;;;;4.90;1.08;;;22.00;77.10;;;;;;5013213;28;20091;-75
2022/02/27 11:25:14;;;;;;;1.58;1.23;;;22.00;76.80;;;;;;5010481;28;20469;-75
2022/02/27 11:27:50;;;;;;;3.05;0.95;;;22.00;76.60;;;;;;5012615;28;20137;-75
2022/02/27 11:30:22;;;;;;;1.25;0.63;;;22.00;76.30;;;;;;5010323;28;20040;-75
2022/02/27 11:32:53;;;;;;;1.58;0.90;;;22.00;76.00;;;;;;5023254;28;20408;-75
2022/02/27 11:35:50;;;;;;;1.63;0.60;;;22.10;76.00;;;;;;5010968;28;20030;-75
2022/02/27 11:38:31;;;;;;;2.83;0.98;;;22.10;75.80;;;;;;5024477;28;20073;-75
2022/02/27 11:41:13;;;;;;;1.85;1.02;;;22.10;76.00;;;;;;5012519;28;20025;-75
2022/02/27 11:43:52;;;;;;;;;;;22.10;76.20;;;;;;5013484;28;20034;-75
2022/02/27 11:46:36;;;;;;;3.17;0.95;;;22.10;76.40;;;;;;5023968;28;19949;-75
2022/02/27 11:49:02;;;;;;;2.78;0.82;;;22.10;76.80;;;;;;5028044;28;20854;-75
2022/02/27 11:51:40;;;;;;;0.93;0.68;;;22.10;77.00;;;;;;5007190;28;20026;-75
2022/02/27 11:54:11;;;;;;;3.25;0.90;;;22.10;77.30;;;;;;5012831;28;20462;-75
2022/02/27 11:56:38;;;;;;;2.50;0.90;;;22.10;77.50;;;;;;5011624;28;20040;-75
2022/02/27 11:59:04;;;;;;;2.40;0.65;;;22.10;77.60;;;;;;5011799;28;20469;-75
2022/02/27 12:01:50;;;;;;;2.40;0.95;;;22.20;77.80;;;;;;5011872;28;20046;-75
2022/02/27 12:04:19;;;;;;;2.00;0.70;;;22.20;78.00;;;;;;5004727;28;20851;-76
2022/02/27 12:07:07;;;;;;;2.25;0.90;;;22.20;78.10;;;;;;5010277;28;20037;-75
2022/02/27 12:09:51;;;;;;;1.30;0.55;;;22.20;78.30;;;;;;5010552;28;20363;-75
2022/02/27 12:12:38;;;;;;;2.78;0.70;;;22.20;78.40;;;;;;5023287;28;20049;-75
2022/02/27 12:15:30;;;;;;;2.85;1.08;;;22.30;78.40;;;;;;5007673;28;20045;-75
2022/02/27 12:18:03;;;;;;;1.98;0.70;;;22.30;78.50;;;;;;5005191;28;20478;-75
2022/02/27 12:20:53;;;;;;;3.17;0.60;;;22.30;78.40;;;;;;5023649;28;20520;-76
2022/02/27 12:23:31;;;;;;;0.95;0.55;;;22.30;78.40;;;;;;5004125;28;20066;-75
2022/02/27 12:26:02;;;;;;;2.15;0.77;;;22.30;78.40;;;;;;5023257;28;20037;-76
2022/02/27 12:28:48;;;;;;;1.77;0.98;;;22.40;78.50;;;;;;5023603;28;20057;-75
2022/02/27 12:31:18;;;;;;;1.85;0.73;;;22.40;78.60;;;;;;5007498;28;20033;-75
2022/02/27 12:33:44;;;;;;;3.33;0.77;;;22.40;78.60;;;;;;5027491;28;20025;-75
2022/02/27 12:36:09;;;;;;;2.08;0.95;;;22.40;78.50;;;;;;5013542;28;20045;-75
2022/02/27 12:38:38;;;;;;;1.98;0.77;;;22.40;78.60;;;;;;5015238;28;20026;-75
2022/02/27 12:41:06;;;;;;;1.35;0.73;;;22.40;78.70;;;;;;5014678;28;20034;-75
2022/02/27 12:43:32;;;;;;;1.38;0.80;;;22.40;78.70;;;;;;5012586;28;20033;-75
2022/02/27 12:46:00;;;;;;;1.63;0.68;;;22.40;78.80;;;;;;5016275;28;20493;-75
2022/02/27 12:50:11;;;;;;;1.35;1.00;;;22.50;79.40;;;;;;5011907;28;20168;-75
2022/02/27 12:51:12;;;;;;;1.83;0.88;;;22.50;78.80;;;;;;5014881;28;20496;-75
2022/02/27 12:53:39;;;;;;;2.53;0.80;;;22.50;78.70;;;;;;5015729;28;20033;-75
2022/02/27 12:56:07;;;;;;;1.58;0.60;;;22.50;78.70;;;;;;5014088;28;20042;-75
2022/02/27 12:58:40;;;;;;;1.48;0.77;;;22.50;78.70;;;;;;5013571;28;20030;-75
2022/02/27 13:01:07;;;;;;;1.45;0.60;;;22.50;78.70;;;;;;5012241;28;20026;-75
2022/02/27 13:03:34;;;;;;;2.78;1.02;;;22.50;78.70;;;;;;5014740;28;20030;-75
2022/02/27 13:06:02;;;;;;;2.47;0.95;;;22.60;78.70;;;;;;5011718;28;20034;-76